sensor_id;sensor_type;location;lat;lon;timestamp;pressure;altitude;pressure_sealevel;temperature;humidity
54439;BME280;40347;53.848;27.498;2023-09-19T00:01:13;1013.2;;;16.5;74.1
54439;BME280;40347;53.848;27.498;2023-09-19T00:05:43;1013.2;;;16.4;74.2
54439;BME280;40347;53.848;27.498;2023-09-19T00:11:03;1013.2;;;16.3;74.3
54439;BME280;40347;53.848;27.498;2023-09-19T00:15:43;1013.2;;;16.4;74.2
54439;BME280;40347;53.848;27.498;2023-09-19T00:30:43;1013;;;16.5;73.4
54439;BME280;40347;53.848;27.498;2023-09-19T00:35:46;1013;;;16.5;73.4
54439;BME280;40347;53.848;27.498;2023-09-19T00:41:03;1013;;;16.6;72.7
54439;BME280;40347;53.848;27.498;2023-09-19T00:45:46;1013;;;16.6;72.7
54439;BME280;40347;53.848;27.498;2023-09-19T00:50:43;1012.8;;;16.5;72.1
54439;BME280;40347;53.848;27.498;2023-09-19T01:21:04;1012.5;;;16.5;70.9
54439;BME280;40347;53.848;27.498;2023-09-19T01:35:53;1012.3;;;16.6;70.5
54439;BME280;40347;53.848;27.498;2023-09-19T01:40:43;1012.2;;;16.5;70.4
54439;BME280;40347;53.848;27.498;2023-09-19T01:46:09;1012.2;;;16.5;70.5
54439;BME280;40347;53.848;27.498;2023-09-19T01:51:18;1012.2;;;16.4;70.4
54439;BME280;40347;53.848;27.498;2023-09-19T01:55:43;1012.1;;;16.3;70.2
54439;BME280;40347;53.848;27.498;2023-09-19T02:01:01;1012.1;;;16.2;70.3
54439;BME280;40347;53.848;27.498;2023-09-19T02:06:15;1012.1;;;16.1;70.4
54439;BME280;40347;53.848;27.498;2023-09-19T02:11:37;1012;;;15.8;70.7
54439;BME280;40347;53.848;27.498;2023-09-19T02:35:43;1011.8;;;15.2;72.6
54439;BME280;40347;53.848;27.498;2023-09-19T03:26:01;1011.6;;;14.3;74.7
54439;BME280;40347;53.848;27.498;2023-09-19T04:20:53;1011.7;;;14.3;74.1
54439;BME280;40347;53.848;27.498;2023-09-19T05:05:43;1011.1;;;15.4;71.2
54439;BME280;40347;53.848;27.498;2023-09-19T05:10:49;1011.1;;;15.7;70.8
54439;BME280;40347;53.848;27.498;2023-09-19T05:21:05;1011;;;16.7;68.6
54439;BME280;40347;53.848;27.498;2023-09-19T05:26:07;1010.9;;;16.6;68.1
54439;BME280;40347;53.848;27.498;2023-09-19T05:30:43;1010.9;;;16.7;67.9
54439;BME280;40347;53.848;27.498;2023-09-19T05:35:55;1010.9;;;16.7;67.9
54439;BME280;40347;53.848;27.498;2023-09-19T05:50:57;1010.7;;;17.2;66.4
54439;BME280;40347;53.848;27.498;2023-09-19T06:05:43;1010.7;;;17.4;65.7
54439;BME280;40347;53.848;27.498;2023-09-19T06:10:49;1010.7;;;17.7;65.3
54439;BME280;40347;53.848;27.498;2023-09-19T06:16:09;1010.7;;;17.9;64.7
54439;BME280;40347;53.848;27.498;2023-09-19T06:21:15;1010.7;;;17.9;64.3
54439;BME280;40347;53.848;27.498;2023-09-19T06:25:57;1010.7;;;17.9;64.2
54439;BME280;40347;53.848;27.498;2023-09-19T06:40:49;1010.6;;;18.1;64
54439;BME280;40347;53.848;27.498;2023-09-19T06:46:07;1010.6;;;18.1;63.8
54439;BME280;40347;53.848;27.498;2023-09-19T06:56:01;1010.5;;;18.4;63.6
54439;BME280;40347;53.848;27.498;2023-09-19T07:05:55;1010.5;;;19.1;62.5
54439;BME280;40347;53.848;27.498;2023-09-19T07:25:43;1010.5;;;19;62.2
54439;BME280;40347;53.848;27.498;2023-09-19T07:45:43;1010.3;;;19.2;61.8
54439;BME280;40347;53.848;27.498;2023-09-19T07:51:01;1010.2;;;19.3;61.4
54439;BME280;40347;53.848;27.498;2023-09-19T07:55:43;1010.1;;;19.4;61.4
54439;BME280;40347;53.848;27.498;2023-09-19T08:01:15;1010;;;19.5;61.1
54439;BME280;40347;53.848;27.498;2023-09-19T08:05:49;1010;;;19.5;60.8
54439;BME280;40347;53.848;27.498;2023-09-19T08:11:07;1010;;;19.7;60.8
54439;BME280;40347;53.848;27.498;2023-09-19T08:16:01;1009.9;;;19.8;60.3
54439;BME280;40347;53.848;27.498;2023-09-19T08:20:59;1010;;;20;60.2
54439;BME280;40347;53.848;27.498;2023-09-19T08:26:07;1009.9;;;20.1;59.9
54439;BME280;40347;53.848;27.498;2023-09-19T08:30:43;1009.8;;;20.2;59.8
54439;BME280;40347;53.848;27.498;2023-09-19T08:36:01;1009.7;;;20.4;59.8
54439;BME280;40347;53.848;27.498;2023-09-19T08:40:43;1009.7;;;20.4;59.5
54439;BME280;40347;53.848;27.498;2023-09-19T08:46:07;1009.6;;;20.6;59.4
54439;BME280;40347;53.848;27.498;2023-09-19T08:50:43;1009.5;;;20.8;59.2
54439;BME280;40347;53.848;27.498;2023-09-19T08:55:49;1009.6;;;20.8;59.2
54439;BME280;40347;53.848;27.498;2023-09-19T09:00:43;1009.5;;;21;58.9
54439;BME280;40347;53.848;27.498;2023-09-19T09:05:43;1009.5;;;21.1;58.5
54439;BME280;40347;53.848;27.498;2023-09-19T09:11:01;1009.5;;;21.2;57.9
54439;BME280;40347;53.848;27.498;2023-09-19T09:15:49;1009.4;;;21.2;57.4
54439;BME280;40347;53.848;27.498;2023-09-19T09:21:01;1009.3;;;21.3;57.7
54439;BME280;40347;53.848;27.498;2023-09-19T09:26:01;1009.4;;;21.4;57.6
54439;BME280;40347;53.848;27.498;2023-09-19T09:31:21;1009.3;;;21.4;57.4
54439;BME280;40347;53.848;27.498;2023-09-19T09:36:09;1009.3;;;21.4;57.1
54439;BME280;40347;53.848;27.498;2023-09-19T09:40:45;1009.2;;;21.5;56.7
54439;BME280;40347;53.848;27.498;2023-09-19T09:46:09;1009.2;;;21.6;56.3
54439;BME280;40347;53.848;27.498;2023-09-19T09:50:57;1009.2;;;21.7;56.2
54439;BME280;40347;53.848;27.498;2023-09-19T09:55:57;1009.1;;;21.7;55.9
54439;BME280;40347;53.848;27.498;2023-09-19T10:00:51;1009;;;21.8;55.6
54439;BME280;40347;53.848;27.498;2023-09-19T10:05:43;1009;;;21.9;55.6
54439;BME280;40347;53.848;27.498;2023-09-19T10:11:01;1009;;;22;55.6
54439;BME280;40347;53.848;27.498;2023-09-19T10:16:01;1009;;;22.1;54.8
54439;BME280;40347;53.848;27.498;2023-09-19T10:21:01;1008.9;;;22.2;54.9
54439;BME280;40347;53.848;27.498;2023-09-19T10:25:43;1008.9;;;22.4;54.5
54439;BME280;40347;53.848;27.498;2023-09-19T10:30:57;1008.8;;;22.5;53.5
54439;BME280;40347;53.848;27.498;2023-09-19T10:35:44;1008.8;;;22.5;52.5
54439;BME280;40347;53.848;27.498;2023-09-19T10:40:43;1008.8;;;22.6;52.2
54439;BME280;40347;53.848;27.498;2023-09-19T10:45:44;1008.7;;;22.7;52.3
54439;BME280;40347;53.848;27.498;2023-09-19T10:50:43;1008.7;;;22.8;52.5
54439;BME280;40347;53.848;27.498;2023-09-19T10:56:07;1008.7;;;22.9;51.8
54439;BME280;40347;53.848;27.498;2023-09-19T11:01:01;1008.6;;;23;51.9
54439;BME280;40347;53.848;27.498;2023-09-19T11:05:43;1008.6;;;23.1;51.5
54439;BME280;40347;53.848;27.498;2023-09-19T11:11:01;1008.6;;;23.2;51.1
54439;BME280;40347;53.848;27.498;2023-09-19T11:16:03;1008.6;;;23.5;50.3
54439;BME280;40347;53.848;27.498;2023-09-19T11:21:24;1008.5;;;24.2;49.4
54439;BME280;40347;53.848;27.498;2023-09-19T11:25:55;1008.5;;;24.8;48.1
54439;BME280;40347;53.848;27.498;2023-09-19T11:30:57;1008.4;;;25.1;47.8
54439;BME280;40347;53.848;27.498;2023-09-19T11:35:59;1008.3;;;24.9;47.1
54439;BME280;40347;53.848;27.498;2023-09-19T11:40:44;1008.3;;;24.8;47.7
54439;BME280;40347;53.848;27.498;2023-09-19T11:46:04;1008.3;;;24.6;47.7
54439;BME280;40347;53.848;27.498;2023-09-19T11:50:49;1008.3;;;24.4;47.7
54439;BME280;40347;53.848;27.498;2023-09-19T11:55:43;1008.3;;;24.3;48.3
54439;BME280;40347;53.848;27.498;2023-09-19T12:00:57;1008.3;;;24.1;47.9
54439;BME280;40347;53.848;27.498;2023-09-19T12:05:43;1008.3;;;24.1;48.6
54439;BME280;40347;53.848;27.498;2023-09-19T12:11:01;1008.2;;;24.2;48.7
54439;BME280;40347;53.848;27.498;2023-09-19T12:15:53;1008.3;;;24.1;49
54439;BME280;40347;53.848;27.498;2023-09-19T12:21:21;1008.2;;;24.1;49
54439;BME280;40347;53.848;27.498;2023-09-19T12:25:58;1008.2;;;24.1;48.8
54439;BME280;40347;53.848;27.498;2023-09-19T12:31:05;1008.2;;;24;48.7
54439;BME280;40347;53.848;27.498;2023-09-19T12:35:43;1008.1;;;24;49
54439;BME280;40347;53.848;27.498;2023-09-19T12:41:01;1008.1;;;23.9;49.3
54439;BME280;40347;53.848;27.498;2023-09-19T12:46:29;1008.1;;;23.8;49.4
54439;BME280;40347;53.848;27.498;2023-09-19T12:50:59;1008.1;;;23.8;49.8
54439;BME280;40347;53.848;27.498;2023-09-19T12:55:58;1008;;;23.7;49.9
54439;BME280;40347;53.848;27.498;2023-09-19T13:01:15;1008;;;23.7;49.4
54439;BME280;40347;53.848;27.498;2023-09-19T13:05:53;1008;;;23.8;49.4
54439;BME280;40347;53.848;27.498;2023-09-19T13:10:59;1008;;;24;49.4
54439;BME280;40347;53.848;27.498;2023-09-19T13:16:04;1007.9;;;24;49.3
54439;BME280;40347;53.848;27.498;2023-09-19T13:21:04;1007.9;;;24;49.4
54439;BME280;40347;53.848;27.498;2023-09-19T13:25:43;1007.8;;;24;49.6
54439;BME280;40347;53.848;27.498;2023-09-19T13:30:43;1007.8;;;23.9;49.9
54439;BME280;40347;53.848;27.498;2023-09-19T13:35:43;1007.8;;;23.9;50.2
54439;BME280;40347;53.848;27.498;2023-09-19T13:40:57;1007.8;;;23.8;50.5
54439;BME280;40347;53.848;27.498;2023-09-19T13:46:03;1007.8;;;23.8;50.6
54439;BME280;40347;53.848;27.498;2023-09-19T13:50:51;1007.9;;;23.7;50.9
54439;BME280;40347;53.848;27.498;2023-09-19T13:55:43;1007.8;;;23.6;51.4
54439;BME280;40347;53.848;27.498;2023-09-19T14:01:09;1007.8;;;23.5;51.6
54439;BME280;40347;53.848;27.498;2023-09-19T14:05:49;1007.8;;;23.4;51.9
54439;BME280;40347;53.848;27.498;2023-09-19T14:11:05;1007.8;;;23.4;52.2
54439;BME280;40347;53.848;27.498;2023-09-19T14:16:23;1007.7;;;23.3;52.4
54439;BME280;40347;53.848;27.498;2023-09-19T14:20:43;1007.7;;;23.2;52.9
54439;BME280;40347;53.848;27.498;2023-09-19T14:26:01;1007.7;;;23.1;53.4
54439;BME280;40347;53.848;27.498;2023-09-19T14:30:55;1007.7;;;23.1;54
54439;BME280;40347;53.848;27.498;2023-09-19T14:35:43;1007.6;;;22.9;54.6
54439;BME280;40347;53.848;27.498;2023-09-19T14:40:43;1007.7;;;22.9;54.7
54439;BME280;40347;53.848;27.498;2023-09-19T14:46:02;1007.7;;;22.8;54.8
54439;BME280;40347;53.848;27.498;2023-09-19T14:51:07;1007.7;;;22.6;55.1
54439;BME280;40347;53.848;27.498;2023-09-19T14:55:49;1007.7;;;22.5;55.6
54439;BME280;40347;53.848;27.498;2023-09-19T15:00:43;1007.7;;;22.3;56.2
54439;BME280;40347;53.848;27.498;2023-09-19T15:06:21;1007.7;;;22.1;56.5
54439;BME280;40347;53.848;27.498;2023-09-19T15:11:01;1007.7;;;22;56.9
54439;BME280;40347;53.848;27.498;2023-09-19T15:15:43;1007.7;;;22;57.3
54439;BME280;40347;53.848;27.498;2023-09-19T15:20:43;1007.7;;;22;57.6
54439;BME280;40347;53.848;27.498;2023-09-19T15:25:47;1007.7;;;22;57.9
54439;BME280;40347;53.848;27.498;2023-09-19T15:31:06;1007.7;;;22;58.5
54439;BME280;40347;53.848;27.498;2023-09-19T15:35:43;1007.7;;;21.9;58.7
54439;BME280;40347;53.848;27.498;2023-09-19T15:40:57;1007.7;;;21.7;59.1
54439;BME280;40347;53.848;27.498;2023-09-19T15:45:49;1007.7;;;21.5;59.5
54439;BME280;40347;53.848;27.498;2023-09-19T15:51:02;1007.8;;;21.4;59.8
54439;BME280;40347;53.848;27.498;2023-09-19T15:56:29;1007.8;;;21.2;60.7
54439;BME280;40347;53.848;27.498;2023-09-19T16:01:07;1007.8;;;21.1;61.2
54439;BME280;40347;53.848;27.498;2023-09-19T16:06:01;1007.8;;;21.1;61.4
54439;BME280;40347;53.848;27.498;2023-09-19T16:11:24;1007.8;;;20.9;61.5
54439;BME280;40347;53.848;27.498;2023-09-19T16:15:43;1007.9;;;20.8;61.9
54439;BME280;40347;53.848;27.498;2023-09-19T16:21:29;1007.8;;;20.7;62.1
54439;BME280;40347;53.848;27.498;2023-09-19T16:26:04;1007.8;;;20.6;62.3
54439;BME280;40347;53.848;27.498;2023-09-19T16:31:07;1007.9;;;20.6;62.5
54439;BME280;40347;53.848;27.498;2023-09-19T16:36:06;1007.9;;;20.5;62.7
54439;BME280;40347;53.848;27.498;2023-09-19T16:41:01;1008;;;20.5;62.5
54439;BME280;40347;53.848;27.498;2023-09-19T16:46:02;1008;;;20.5;62.4
54439;BME280;40347;53.848;27.498;2023-09-19T16:50:43;1008;;;20.5;62.4
54439;BME280;40347;53.848;27.498;2023-09-19T16:56:02;1008;;;20.4;62.6
54439;BME280;40347;53.848;27.498;2023-09-19T17:00:43;1008;;;20.2;63
54439;BME280;40347;53.848;27.498;2023-09-19T17:05:49;1008.1;;;20.1;63.4
54439;BME280;40347;53.848;27.498;2023-09-19T17:11:08;1008;;;20;63.8
54439;BME280;40347;53.848;27.498;2023-09-19T17:15:43;1008;;;19.8;64.5
54439;BME280;40347;53.848;27.498;2023-09-19T17:20:43;1008;;;19.7;64.7
54439;BME280;40347;53.848;27.498;2023-09-19T17:26:04;1008;;;19.7;64.8
54439;BME280;40347;53.848;27.498;2023-09-19T17:31:01;1008;;;19.7;64.9
54439;BME280;40347;53.848;27.498;2023-09-19T17:36:05;1008;;;19.7;65.2
54439;BME280;40347;53.848;27.498;2023-09-19T17:40:43;1008;;;19.6;65.3
54439;BME280;40347;53.848;27.498;2023-09-19T17:46:09;1008.1;;;19.6;65.6
54439;BME280;40347;53.848;27.498;2023-09-19T17:50:43;1008.1;;;19.5;65.8
54439;BME280;40347;53.848;27.498;2023-09-19T17:55:59;1008.2;;;19.4;66.3
54439;BME280;40347;53.848;27.498;2023-09-19T18:00:43;1008.2;;;19.3;66.9
54439;BME280;40347;53.848;27.498;2023-09-19T18:05:43;1008.2;;;19.3;67.1
54439;BME280;40347;53.848;27.498;2023-09-19T18:10:53;1008.2;;;19.4;67
54439;BME280;40347;53.848;27.498;2023-09-19T18:15:44;1008.2;;;19.4;67.2
54439;BME280;40347;53.848;27.498;2023-09-19T18:20:43;1008.2;;;19.3;67.4
54439;BME280;40347;53.848;27.498;2023-09-19T18:26:13;1008.2;;;19.4;67.7
54439;BME280;40347;53.848;27.498;2023-09-19T18:30:49;1008.2;;;19.4;67.6
54439;BME280;40347;53.848;27.498;2023-09-19T18:36:29;1008.1;;;19.4;67.9
54439;BME280;40347;53.848;27.498;2023-09-19T18:40:43;1008.1;;;19.4;67.6
54439;BME280;40347;53.848;27.498;2023-09-19T18:45:57;1008.1;;;19.5;67.5
54439;BME280;40347;53.848;27.498;2023-09-19T18:50:43;1008.2;;;19.5;67.6
54439;BME280;40347;53.848;27.498;2023-09-19T18:55:43;1008.2;;;19.6;67.7
54439;BME280;40347;53.848;27.498;2023-09-19T19:00:43;1008.1;;;19.6;67.8
54439;BME280;40347;53.848;27.498;2023-09-19T19:05:43;1008.1;;;19.7;67.6
54439;BME280;40347;53.848;27.498;2023-09-19T19:10:51;1008.1;;;19.7;67.5
54439;BME280;40347;53.848;27.498;2023-09-19T19:16:01;1008;;;19.7;67.7
54439;BME280;40347;53.848;27.498;2023-09-19T19:20:43;1008;;;19.7;67.5
54439;BME280;40347;53.848;27.498;2023-09-19T19:26:06;1008;;;19.7;67.6
54439;BME280;40347;53.848;27.498;2023-09-19T19:30:43;1008;;;19.8;67.5
54439;BME280;40347;53.848;27.498;2023-09-19T19:35:43;1007.9;;;19.8;67.6
54439;BME280;40347;53.848;27.498;2023-09-19T19:40:56;1007.9;;;19.7;67.2
54439;BME280;40347;53.848;27.498;2023-09-19T19:45:52;1008;;;19.7;67.3
54439;BME280;40347;53.848;27.498;2023-09-19T19:50:43;1008;;;19.6;67.3
54439;BME280;40347;53.848;27.498;2023-09-19T19:56:39;1008;;;19.6;67.2
54439;BME280;40347;53.848;27.498;2023-09-19T20:00:54;1008;;;19.6;67.2
54439;BME280;40347;53.848;27.498;2023-09-19T20:05:43;1008;;;19.6;67.1
54439;BME280;40347;53.848;27.498;2023-09-19T20:10:43;1008.1;;;19.5;67.1
54439;BME280;40347;53.848;27.498;2023-09-19T20:15:57;1008.1;;;19.5;67.3
54439;BME280;40347;53.848;27.498;2023-09-19T20:20:43;1008.1;;;19.5;67.3
54439;BME280;40347;53.848;27.498;2023-09-19T20:25:43;1008.1;;;19.5;67.4
54439;BME280;40347;53.848;27.498;2023-09-19T20:31:23;1008.1;;;19.6;67.4
54439;BME280;40347;53.848;27.498;2023-09-19T20:35:43;1008.2;;;19.5;67.5
54439;BME280;40347;53.848;27.498;2023-09-19T20:40:43;1008.2;;;19.4;67.4
54439;BME280;40347;53.848;27.498;2023-09-19T20:46:03;1008.2;;;19.4;67.7
54439;BME280;40347;53.848;27.498;2023-09-19T20:51:05;1008.2;;;19.3;67.9
54439;BME280;40347;53.848;27.498;2023-09-19T20:55:57;1008.3;;;19.4;67.9
54439;BME280;40347;53.848;27.498;2023-09-19T21:01:15;1008.3;;;19.3;68.3
54439;BME280;40347;53.848;27.498;2023-09-19T21:05:59;1008.2;;;19.3;68.1
54439;BME280;40347;53.848;27.498;2023-09-19T21:11:10;1008.2;;;19.2;68.1
54439;BME280;40347;53.848;27.498;2023-09-19T21:15:43;1008.3;;;19.2;68.5
54439;BME280;40347;53.848;27.498;2023-09-19T21:20:53;1008.3;;;19.1;68.8
54439;BME280;40347;53.848;27.498;2023-09-19T21:26:14;1008.3;;;19.1;68.8
54439;BME280;40347;53.848;27.498;2023-09-19T21:30:59;1008.3;;;19.1;68.7
54439;BME280;40347;53.848;27.498;2023-09-19T21:35:44;1008.4;;;19.1;68.9
54439;BME280;40347;53.848;27.498;2023-09-19T21:40:43;1008.4;;;19;68.9
54439;BME280;40347;53.848;27.498;2023-09-19T21:45:43;1008.3;;;19;68.9
54439;BME280;40347;53.848;27.498;2023-09-19T21:51:27;1008.2;;;19;69
54439;BME280;40347;53.848;27.498;2023-09-19T21:56:21;1008.2;;;19;69.2
54439;BME280;40347;53.848;27.498;2023-09-19T22:01:39;1008.2;;;19;69.4
54439;BME280;40347;53.848;27.498;2023-09-19T22:05:51;1008.2;;;18.9;69.3
54439;BME280;40347;53.848;27.498;2023-09-19T22:10:51;1008.1;;;18.9;69.2
54439;BME280;40347;53.848;27.498;2023-09-19T22:16:01;1008.1;;;18.9;69.3
54439;BME280;40347;53.848;27.498;2023-09-19T22:20:51;1008.2;;;18.8;69.5
54439;BME280;40347;53.848;27.498;2023-09-19T22:25:43;1008.2;;;18.8;69.5
54439;BME280;40347;53.848;27.498;2023-09-19T22:30:51;1008.1;;;18.8;69.6
54439;BME280;40347;53.848;27.498;2023-09-19T22:36:01;1008.2;;;18.7;69.8
54439;BME280;40347;53.848;27.498;2023-09-19T22:41:15;1008.2;;;18.6;70.1
54439;BME280;40347;53.848;27.498;2023-09-19T22:45:57;1008.2;;;18.6;70.6
54439;BME280;40347;53.848;27.498;2023-09-19T22:50:57;1008.2;;;18.6;71.1
54439;BME280;40347;53.848;27.498;2023-09-19T22:55:51;1008.2;;;18.5;71.6
54439;BME280;40347;53.848;27.498;2023-09-19T23:01:06;1008.3;;;18.4;72.2
54439;BME280;40347;53.848;27.498;2023-09-19T23:05:55;1008.3;;;18.3;72.8
54439;BME280;40347;53.848;27.498;2023-09-19T23:11:18;1008.3;;;18.2;73.4
54439;BME280;40347;53.848;27.498;2023-09-19T23:15:51;1008.3;;;18.1;73.9
54439;BME280;40347;53.848;27.498;2023-09-19T23:21:01;1008.3;;;18.1;74.5
54439;BME280;40347;53.848;27.498;2023-09-19T23:25:53;1008.3;;;18.1;74.8
54439;BME280;40347;53.848;27.498;2023-09-19T23:30:43;1008.2;;;18;74.9
54439;BME280;40347;53.848;27.498;2023-09-19T23:36:05;1008.2;;;17.9;75.8
54439;BME280;40347;53.848;27.498;2023-09-19T23:41:07;1008.2;;;17.8;76.5
54439;BME280;40347;53.848;27.498;2023-09-19T23:45:53;1008.3;;;17.8;76.9
54439;BME280;40347;53.848;27.498;2023-09-19T23:51:03;1008.3;;;17.8;77.3
54439;BME280;40347;53.848;27.498;2023-09-19T23:55:53;1008.4;;;17.7;77.7
